Egg Harbor Township, New Jersey
Current Conditions -  °F | °C
As of 6:54 PM on Thursday 18 Dec 2014 (Local Time) from KACY Reporting Station
Clear Clear  
Wind Chill: 27°   Ceiling: Unl
Heat Index: 35°   Visibility: 10mi
Dew Point: 24°   Wind: 10mph
Humidity: 64%   Direction: 260°W
Pressure: 30.03"   Gusts: NA
Location:  39.52°N, 74.64°W
Report Text: KACY 182354Z 26009KT 10SM CLR 02/M04 A3003 RMK AO2 SLP170 T00171044 10056 20017 51011
Loading
Personal Weather Stations






























Interactive Weather Map New forecast layout! Learn more

10-Day Weather Forecast

Advertisements
Track Severe Weather on mobile